sensor_id;sensor_type;location;lat;lon;timestamp;pressure;altitude;pressure_sealevel;temperature;humidity
77526;BME280;66627;29.424;-98.496;2023-05-27T00:00:57;98779.39;;;31.64;28.26
77526;BME280;66627;29.424;-98.496;2023-05-27T00:03:22;98776.58;;;31.65;28.62
77526;BME280;66627;29.424;-98.496;2023-05-27T00:05:47;98771.45;;;31.77;28.49
77526;BME280;66627;29.424;-98.496;2023-05-27T00:08:13;98769.24;;;31.21;29.41
77526;BME280;66627;29.424;-98.496;2023-05-27T00:10:38;98767.59;;;30.82;29.67
77526;BME280;66627;29.424;-98.496;2023-05-27T00:13:03;98770.68;;;30.61;30.43
77526;BME280;66627;29.424;-98.496;2023-05-27T00:15:28;98776.27;;;29.87;31.49
77526;BME280;66627;29.424;-98.496;2023-05-27T00:17:53;98779.85;;;29.39;32.14
77526;BME280;66627;29.424;-98.496;2023-05-27T00:20:21;98779.43;;;29.75;32.37
77526;BME280;66627;29.424;-98.496;2023-05-27T00:22:44;98781.19;;;29.68;31.97
77526;BME280;66627;29.424;-98.496;2023-05-27T00:25:10;98781.16;;;29.38;32.61
77526;BME280;66627;29.424;-98.496;2023-05-27T00:27:40;98774.24;;;29.53;33.19
77526;BME280;66627;29.424;-98.496;2023-05-27T00:30:01;98774.13;;;29.79;32.86
77526;BME280;66627;29.424;-98.496;2023-05-27T00:32:27;98777.81;;;29.64;33.39
77526;BME280;66627;29.424;-98.496;2023-05-27T00:34:52;98786.05;;;29.53;33.56
77526;BME280;66627;29.424;-98.496;2023-05-27T00:37:18;98787.90;;;29.34;34.32
77526;BME280;66627;29.424;-98.496;2023-05-27T00:39:43;98787.03;;;29.42;33.79
77526;BME280;66627;29.424;-98.496;2023-05-27T00:42:10;98786.53;;;29.30;34.59
77526;BME280;66627;29.424;-98.496;2023-05-27T00:44:35;98788.54;;;29.57;34.00
77526;BME280;66627;29.424;-98.496;2023-05-27T00:47:00;98790.84;;;29.70;33.76
77526;BME280;66627;29.424;-98.496;2023-05-27T00:49:25;98787.41;;;29.78;33.04
77526;BME280;66627;29.424;-98.496;2023-05-27T00:51:50;98781.53;;;29.69;33.14
77526;BME280;66627;29.424;-98.496;2023-05-27T00:54:16;98779.28;;;29.87;33.11
77526;BME280;66627;29.424;-98.496;2023-05-27T00:56:41;98780.90;;;29.99;32.80
77526;BME280;66627;29.424;-98.496;2023-05-27T00:59:07;98784.62;;;30.10;32.75
77526;BME280;66627;29.424;-98.496;2023-05-27T01:01:32;98789.69;;;29.60;32.75
77526;BME280;66627;29.424;-98.496;2023-05-27T01:03:58;98799.65;;;29.42;33.20
77526;BME280;66627;29.424;-98.496;2023-05-27T01:06:30;98804.56;;;29.03;33.80
77526;BME280;66627;29.424;-98.496;2023-05-27T01:08:55;98805.26;;;28.91;34.30
77526;BME280;66627;29.424;-98.496;2023-05-27T01:11:13;98812.55;;;28.92;34.72
77526;BME280;66627;29.424;-98.496;2023-05-27T01:13:43;98818.81;;;28.55;34.96
77526;BME280;66627;29.424;-98.496;2023-05-27T01:16:10;98818.24;;;29.11;34.32
77526;BME280;66627;29.424;-98.496;2023-05-27T01:18:31;98822.45;;;28.67;34.61
77526;BME280;66627;29.424;-98.496;2023-05-27T01:20:59;98828.42;;;28.84;34.50
77526;BME280;66627;29.424;-98.496;2023-05-27T01:23:21;98829.96;;;28.89;34.46
77526;BME280;66627;29.424;-98.496;2023-05-27T01:25:46;98831.02;;;28.56;34.64
77526;BME280;66627;29.424;-98.496;2023-05-27T01:28:11;98828.64;;;28.41;35.16
77526;BME280;66627;29.424;-98.496;2023-05-27T01:30:37;98826.11;;;28.56;34.76
77526;BME280;66627;29.424;-98.496;2023-05-27T01:33:08;98830.03;;;28.89;34.84
77526;BME280;66627;29.424;-98.496;2023-05-27T01:35:30;98831.39;;;28.30;35.12
77526;BME280;66627;29.424;-98.496;2023-05-27T01:37:54;98822.85;;;28.24;35.66
77526;BME280;66627;29.424;-98.496;2023-05-27T01:40:19;98817.75;;;28.61;35.54
77526;BME280;66627;29.424;-98.496;2023-05-27T01:42:44;98821.93;;;29.02;34.87
77526;BME280;66627;29.424;-98.496;2023-05-27T01:45:11;98827.20;;;29.11;35.12
77526;BME280;66627;29.424;-98.496;2023-05-27T01:47:36;98828.71;;;28.55;35.31
77526;BME280;66627;29.424;-98.496;2023-05-27T01:50:02;98829.41;;;28.56;35.51
77526;BME280;66627;29.424;-98.496;2023-05-27T01:52:26;98827.37;;;28.35;35.57
77526;BME280;66627;29.424;-98.496;2023-05-27T01:54:51;98831.33;;;28.71;35.55
77526;BME280;66627;29.424;-98.496;2023-05-27T01:57:17;98837.46;;;28.81;35.32
77526;BME280;66627;29.424;-98.496;2023-05-27T01:59:42;98833.25;;;28.68;35.81
77526;BME280;66627;29.424;-98.496;2023-05-27T02:02:08;98834.41;;;29.17;35.31
77526;BME280;66627;29.424;-98.496;2023-05-27T02:04:33;98836.97;;;29.16;35.30
77526;BME280;66627;29.424;-98.496;2023-05-27T02:06:58;98837.55;;;28.99;35.14
77526;BME280;66627;29.424;-98.496;2023-05-27T02:09:24;98833.84;;;29.44;35.18
77526;BME280;66627;29.424;-98.496;2023-05-27T02:11:49;98830.57;;;28.81;35.41
77526;BME280;66627;29.424;-98.496;2023-05-27T02:14:15;98834.42;;;28.58;35.85
77526;BME280;66627;29.424;-98.496;2023-05-27T02:16:41;98834.49;;;28.97;35.91
77526;BME280;66627;29.424;-98.496;2023-05-27T02:19:06;98841.36;;;29.21;35.46
77526;BME280;66627;29.424;-98.496;2023-05-27T02:21:31;98845.49;;;28.17;36.04
77526;BME280;66627;29.424;-98.496;2023-05-27T02:23:57;98851.41;;;28.76;36.32
77526;BME280;66627;29.424;-98.496;2023-05-27T02:26:23;98852.76;;;28.61;36.73
77526;BME280;66627;29.424;-98.496;2023-05-27T02:28:48;98860.24;;;28.89;36.36
77526;BME280;66627;29.424;-98.496;2023-05-27T02:31:13;98871.03;;;28.37;36.30
77526;BME280;66627;29.424;-98.496;2023-05-27T02:33:39;98868.38;;;28.16;37.15
77526;BME280;66627;29.424;-98.496;2023-05-27T02:36:04;98859.94;;;28.63;36.10
77526;BME280;66627;29.424;-98.496;2023-05-27T02:38:30;98860.75;;;28.44;36.12
77526;BME280;66627;29.424;-98.496;2023-05-27T02:40:55;98859.09;;;29.41;35.98
77526;BME280;66627;29.424;-98.496;2023-05-27T02:43:21;98863.35;;;28.84;37.07
77526;BME280;66627;29.424;-98.496;2023-05-27T02:45:46;98873.67;;;28.87;37.06
77526;BME280;66627;29.424;-98.496;2023-05-27T02:48:12;98885.35;;;28.42;37.24
77526;BME280;66627;29.424;-98.496;2023-05-27T02:50:37;98888.71;;;27.94;37.03
77526;BME280;66627;29.424;-98.496;2023-05-27T02:53:03;98894.98;;;27.90;37.37
77526;BME280;66627;29.424;-98.496;2023-05-27T02:55:29;98893.70;;;28.45;37.08
77526;BME280;66627;29.424;-98.496;2023-05-27T02:57:54;98893.88;;;28.22;37.44
77526;BME280;66627;29.424;-98.496;2023-05-27T03:00:20;98898.78;;;28.57;36.91
77526;BME280;66627;29.424;-98.496;2023-05-27T03:02:45;98904.02;;;28.52;37.36
77526;BME280;66627;29.424;-98.496;2023-05-27T03:05:10;98905.37;;;28.38;37.03
77526;BME280;66627;29.424;-98.496;2023-05-27T03:07:36;98914.02;;;28.03;37.35
77526;BME280;66627;29.424;-98.496;2023-05-27T03:10:02;98911.93;;;28.30;37.54
77526;BME280;66627;29.424;-98.496;2023-05-27T03:12:28;98901.72;;;28.29;37.32
77526;BME280;66627;29.424;-98.496;2023-05-27T03:14:52;98899.50;;;28.12;37.68
77526;BME280;66627;29.424;-98.496;2023-05-27T03:17:20;98902.92;;;28.31;37.82
77526;BME280;66627;29.424;-98.496;2023-05-27T03:19:43;98906.10;;;28.00;37.70
77526;BME280;66627;29.424;-98.496;2023-05-27T03:22:08;98903.92;;;27.56;38.35
77526;BME280;66627;29.424;-98.496;2023-05-27T03:24:34;98900.45;;;28.28;38.36
77526;BME280;66627;29.424;-98.496;2023-05-27T03:27:00;98898.39;;;28.29;38.82
77526;BME280;66627;29.424;-98.496;2023-05-27T03:29:25;98899.30;;;27.63;39.15
77526;BME280;66627;29.424;-98.496;2023-05-27T03:31:50;98903.52;;;28.15;38.15
77526;BME280;66627;29.424;-98.496;2023-05-27T03:34:15;98901.80;;;27.79;39.31
77526;BME280;66627;29.424;-98.496;2023-05-27T03:36:41;98901.97;;;28.19;38.79
77526;BME280;66627;29.424;-98.496;2023-05-27T03:39:07;98910.54;;;28.07;38.38
77526;BME280;66627;29.424;-98.496;2023-05-27T03:41:32;98923.02;;;28.23;38.09
77526;BME280;66627;29.424;-98.496;2023-05-27T03:43:57;98931.90;;;27.84;38.36
77526;BME280;66627;29.424;-98.496;2023-05-27T03:46:23;98939.38;;;28.03;38.10
77526;BME280;66627;29.424;-98.496;2023-05-27T03:48:48;98949.98;;;27.88;38.24
77526;BME280;66627;29.424;-98.496;2023-05-27T03:51:14;98958.56;;;27.88;38.10
77526;BME280;66627;29.424;-98.496;2023-05-27T03:53:40;98961.56;;;27.82;38.76
77526;BME280;66627;29.424;-98.496;2023-05-27T03:56:05;98966.33;;;27.75;39.03
77526;BME280;66627;29.424;-98.496;2023-05-27T03:58:31;98975.48;;;27.83;38.68
77526;BME280;66627;29.424;-98.496;2023-05-27T04:00:56;98983.53;;;27.96;38.67
77526;BME280;66627;29.424;-98.496;2023-05-27T04:03:22;98981.28;;;27.84;39.01
77526;BME280;66627;29.424;-98.496;2023-05-27T04:05:47;98979.31;;;27.43;39.40
77526;BME280;66627;29.424;-98.496;2023-05-27T04:08:13;98976.20;;;27.74;38.88
77526;BME280;66627;29.424;-98.496;2023-05-27T04:10:39;98977.31;;;27.72;39.22
77526;BME280;66627;29.424;-98.496;2023-05-27T04:13:04;98979.28;;;27.72;39.42
77526;BME280;66627;29.424;-98.496;2023-05-27T04:15:30;98986.11;;;28.06;39.14
77526;BME280;66627;29.424;-98.496;2023-05-27T04:17:55;98984.10;;;27.90;39.22
77526;BME280;66627;29.424;-98.496;2023-05-27T04:20:21;98985.59;;;27.67;39.30
77526;BME280;66627;29.424;-98.496;2023-05-27T04:22:47;98973.74;;;27.71;39.51
77526;BME280;66627;29.424;-98.496;2023-05-27T04:25:12;98969.59;;;27.69;39.03
77526;BME280;66627;29.424;-98.496;2023-05-27T04:27:38;98972.17;;;27.55;39.00
77526;BME280;66627;29.424;-98.496;2023-05-27T04:30:04;98965.86;;;27.90;39.17
77526;BME280;66627;29.424;-98.496;2023-05-27T04:32:29;98964.40;;;27.77;39.54
77526;BME280;66627;29.424;-98.496;2023-05-27T04:34:55;98964.01;;;27.88;39.72
77526;BME280;66627;29.424;-98.496;2023-05-27T04:37:20;98965.08;;;27.85;39.45
77526;BME280;66627;29.424;-98.496;2023-05-27T04:39:46;98965.12;;;27.63;39.37
77526;BME280;66627;29.424;-98.496;2023-05-27T04:42:12;98971.18;;;27.79;39.23
77526;BME280;66627;29.424;-98.496;2023-05-27T04:44:38;98968.55;;;27.68;39.87
77526;BME280;66627;29.424;-98.496;2023-05-27T04:47:03;98957.13;;;27.44;39.18
77526;BME280;66627;29.424;-98.496;2023-05-27T04:49:28;98952.97;;;26.72;40.28
77526;BME280;66627;29.424;-98.496;2023-05-27T04:51:53;98961.33;;;27.34;40.15
77526;BME280;66627;29.424;-98.496;2023-05-27T04:54:19;98969.51;;;27.35;39.96
77526;BME280;66627;29.424;-98.496;2023-05-27T04:56:44;98968.56;;;26.66;40.39
77526;BME280;66627;29.424;-98.496;2023-05-27T04:59:10;98970.76;;;27.11;40.16
77526;BME280;66627;29.424;-98.496;2023-05-27T05:01:35;98971.91;;;27.14;39.86
77526;BME280;66627;29.424;-98.496;2023-05-27T05:04:01;98980.62;;;26.47;41.14
77526;BME280;66627;29.424;-98.496;2023-05-27T05:06:26;98983.97;;;26.48;41.12
77526;BME280;66627;29.424;-98.496;2023-05-27T05:08:57;98981.53;;;27.44;40.22
77526;BME280;66627;29.424;-98.496;2023-05-27T05:11:18;98972.34;;;26.88;40.06
77526;BME280;66627;29.424;-98.496;2023-05-27T05:13:43;98972.93;;;26.72;41.00
77526;BME280;66627;29.424;-98.496;2023-05-27T05:16:08;98979.86;;;26.90;40.18
77526;BME280;66627;29.424;-98.496;2023-05-27T05:18:34;98992.73;;;26.45;41.42
77526;BME280;66627;29.424;-98.496;2023-05-27T05:20:59;98997.70;;;26.49;41.03
77526;BME280;66627;29.424;-98.496;2023-05-27T05:23:24;99005.67;;;26.69;40.12
77526;BME280;66627;29.424;-98.496;2023-05-27T05:25:50;99016.54;;;26.88;40.34
77526;BME280;66627;29.424;-98.496;2023-05-27T05:28:16;99022.75;;;27.04;40.80
77526;BME280;66627;29.424;-98.496;2023-05-27T05:30:42;99029.85;;;27.18;40.14
77526;BME280;66627;29.424;-98.496;2023-05-27T05:33:08;99033.07;;;26.71;40.98
77526;BME280;66627;29.424;-98.496;2023-05-27T05:35:33;99029.60;;;27.57;39.98
77526;BME280;66627;29.424;-98.496;2023-05-27T05:37:59;99030.45;;;26.95;41.07
77526;BME280;66627;29.424;-98.496;2023-05-27T05:40:25;99022.62;;;26.99;41.48
77526;BME280;66627;29.424;-98.496;2023-05-27T05:42:51;99008.96;;;26.80;40.98
77526;BME280;66627;29.424;-98.496;2023-05-27T05:45:16;99005.48;;;26.87;40.87
77526;BME280;66627;29.424;-98.496;2023-05-27T05:47:42;99007.28;;;26.94;40.87
77526;BME280;66627;29.424;-98.496;2023-05-27T05:50:08;99022.43;;;26.64;41.31
77526;BME280;66627;29.424;-98.496;2023-05-27T05:52:33;99033.73;;;26.38;42.36
77526;BME280;66627;29.424;-98.496;2023-05-27T05:54:59;99034.07;;;27.04;41.32
77526;BME280;66627;29.424;-98.496;2023-05-27T05:57:24;99022.04;;;26.52;42.03
77526;BME280;66627;29.424;-98.496;2023-05-27T05:59:50;99008.25;;;26.38;42.62
77526;BME280;66627;29.424;-98.496;2023-05-27T06:02:15;99001.88;;;26.46;42.34
77526;BME280;66627;29.424;-98.496;2023-05-27T06:04:40;98997.06;;;26.31;42.82
77526;BME280;66627;29.424;-98.496;2023-05-27T06:07:06;98990.18;;;26.57;43.01
77526;BME280;66627;29.424;-98.496;2023-05-27T06:09:32;98989.44;;;26.80;42.86
77526;BME280;66627;29.424;-98.496;2023-05-27T06:11:57;98992.09;;;26.57;42.71
77526;BME280;66627;29.424;-98.496;2023-05-27T06:14:23;98996.40;;;27.16;42.63
77526;BME280;66627;29.424;-98.496;2023-05-27T06:16:49;98990.76;;;26.82;43.02
77526;BME280;66627;29.424;-98.496;2023-05-27T06:19:14;98992.37;;;26.77;43.14
77526;BME280;66627;29.424;-98.496;2023-05-27T06:21:39;99003.49;;;26.27;43.02
77526;BME280;66627;29.424;-98.496;2023-05-27T06:24:06;99021.84;;;26.34;42.91
77526;BME280;66627;29.424;-98.496;2023-05-27T06:26:30;99021.06;;;26.50;42.75
77526;BME280;66627;29.424;-98.496;2023-05-27T06:28:55;99015.00;;;26.20;43.83
77526;BME280;66627;29.424;-98.496;2023-05-27T06:31:21;99014.11;;;25.55;44.53
77526;BME280;66627;29.424;-98.496;2023-05-27T06:33:46;99013.74;;;25.89;44.89
77526;BME280;66627;29.424;-98.496;2023-05-27T06:36:11;99016.26;;;25.97;44.35
77526;BME280;66627;29.424;-98.496;2023-05-27T06:38:37;99017.96;;;25.87;44.29
77526;BME280;66627;29.424;-98.496;2023-05-27T06:41:02;99020.61;;;25.34;46.37
77526;BME280;66627;29.424;-98.496;2023-05-27T06:43:28;99026.79;;;25.51;45.65
77526;BME280;66627;29.424;-98.496;2023-05-27T06:45:53;99023.08;;;25.57;46.06
77526;BME280;66627;29.424;-98.496;2023-05-27T06:48:18;99026.98;;;25.50;46.00
77526;BME280;66627;29.424;-98.496;2023-05-27T06:50:43;99028.12;;;26.14;45.05
77526;BME280;66627;29.424;-98.496;2023-05-27T06:53:09;99029.12;;;25.65;46.57
77526;BME280;66627;29.424;-98.496;2023-05-27T06:55:34;99023.40;;;25.58;46.77
77526;BME280;66627;29.424;-98.496;2023-05-27T06:58:01;99017.90;;;26.37;45.49
77526;BME280;66627;29.424;-98.496;2023-05-27T07:00:26;99009.85;;;26.14;45.44
77526;BME280;66627;29.424;-98.496;2023-05-27T07:02:51;99004.16;;;25.88;46.61
77526;BME280;66627;29.424;-98.496;2023-05-27T07:05:17;98995.28;;;25.10;47.10
77526;BME280;66627;29.424;-98.496;2023-05-27T07:07:41;98990.48;;;25.73;46.15
77526;BME280;66627;29.424;-98.496;2023-05-27T07:10:08;98989.21;;;25.63;46.46
77526;BME280;66627;29.424;-98.496;2023-05-27T07:12:33;98989.06;;;24.52;48.19
77526;BME280;66627;29.424;-98.496;2023-05-27T07:14:58;98984.37;;;25.85;45.90
77526;BME280;66627;29.424;-98.496;2023-05-27T07:17:23;98981.63;;;25.83;45.93
77526;BME280;66627;29.424;-98.496;2023-05-27T07:19:49;98980.97;;;25.86;46.13
77526;BME280;66627;29.424;-98.496;2023-05-27T07:22:14;98980.86;;;25.84;46.64
77526;BME280;66627;29.424;-98.496;2023-05-27T07:24:39;98978.42;;;25.37;48.08
77526;BME280;66627;29.424;-98.496;2023-05-27T07:27:05;98984.41;;;25.20;48.17
77526;BME280;66627;29.424;-98.496;2023-05-27T07:29:30;98985.78;;;25.83;47.39
77526;BME280;66627;29.424;-98.496;2023-05-27T07:31:55;98985.45;;;26.07;46.58
77526;BME280;66627;29.424;-98.496;2023-05-27T07:34:21;98982.41;;;26.02;46.72
77526;BME280;66627;29.424;-98.496;2023-05-27T07:36:46;98975.30;;;25.52;47.61
77526;BME280;66627;29.424;-98.496;2023-05-27T07:39:12;98966.85;;;25.79;47.79
77526;BME280;66627;29.424;-98.496;2023-05-27T07:41:37;98963.49;;;25.68;46.94
77526;BME280;66627;29.424;-98.496;2023-05-27T07:44:02;98963.62;;;25.97;46.67
77526;BME280;66627;29.424;-98.496;2023-05-27T07:46:28;98969.09;;;25.77;47.31
77526;BME280;66627;29.424;-98.496;2023-05-27T07:48:53;98975.46;;;25.69;48.13
77526;BME280;66627;29.424;-98.496;2023-05-27T07:51:19;98978.91;;;25.60;47.40
77526;BME280;66627;29.424;-98.496;2023-05-27T07:53:44;98988.65;;;25.77;47.19
77526;BME280;66627;29.424;-98.496;2023-05-27T07:56:14;98999.93;;;25.94;47.14
77526;BME280;66627;29.424;-98.496;2023-05-27T07:58:35;99004.45;;;25.68;47.53
77526;BME280;66627;29.424;-98.496;2023-05-27T08:01:01;98995.02;;;25.51;47.15
77526;BME280;66627;29.424;-98.496;2023-05-27T08:03:27;98993.69;;;26.06;46.23
77526;BME280;66627;29.424;-98.496;2023-05-27T08:05:52;98991.22;;;26.00;46.53
77526;BME280;66627;29.424;-98.496;2023-05-27T08:08:18;98986.97;;;25.62;47.48
77526;BME280;66627;29.424;-98.496;2023-05-27T08:10:43;98978.99;;;25.76;47.31
77526;BME280;66627;29.424;-98.496;2023-05-27T08:13:08;98968.64;;;25.43;48.26
77526;BME280;66627;29.424;-98.496;2023-05-27T08:15:34;98973.21;;;25.53;47.83
77526;BME280;66627;29.424;-98.496;2023-05-27T08:18:00;98978.09;;;25.57;47.71
77526;BME280;66627;29.424;-98.496;2023-05-27T08:20:25;98968.83;;;25.26;48.89
77526;BME280;66627;29.424;-98.496;2023-05-27T08:22:50;98958.29;;;25.12;48.92
77526;BME280;66627;29.424;-98.496;2023-05-27T08:25:16;98961.12;;;25.08;48.99
77526;BME280;66627;29.424;-98.496;2023-05-27T08:27:45;98970.87;;;25.20;48.99
77526;BME280;66627;29.424;-98.496;2023-05-27T08:30:07;98977.40;;;24.95;49.50
77526;BME280;66627;29.424;-98.496;2023-05-27T08:32:32;98981.74;;;25.06;49.10
77526;BME280;66627;29.424;-98.496;2023-05-27T08:34:58;98985.51;;;24.97;49.33
77526;BME280;66627;29.424;-98.496;2023-05-27T08:37:24;98989.22;;;25.59;48.88
77526;BME280;66627;29.424;-98.496;2023-05-27T08:39:49;98992.68;;;24.90;48.69
77526;BME280;66627;29.424;-98.496;2023-05-27T08:42:14;98998.20;;;25.39;48.44
77526;BME280;66627;29.424;-98.496;2023-05-27T08:44:40;98999.62;;;25.26;48.79
77526;BME280;66627;29.424;-98.496;2023-05-27T08:47:05;98996.61;;;25.19;48.70
77526;BME280;66627;29.424;-98.496;2023-05-27T08:49:30;98990.84;;;24.60;49.50
77526;BME280;66627;29.424;-98.496;2023-05-27T08:51:56;98984.58;;;24.15;50.40
77526;BME280;66627;29.424;-98.496;2023-05-27T08:54:22;98987.96;;;24.73;49.96
77526;BME280;66627;29.424;-98.496;2023-05-27T08:56:48;98988.35;;;24.80;50.40
77526;BME280;66627;29.424;-98.496;2023-05-27T08:59:12;98982.35;;;24.76;50.19
77526;BME280;66627;29.424;-98.496;2023-05-27T09:01:38;98981.09;;;24.83;50.25
77526;BME280;66627;29.424;-98.496;2023-05-27T09:04:03;98979.17;;;24.58;50.36
77526;BME280;66627;29.424;-98.496;2023-05-27T09:06:28;98974.89;;;24.63;50.38
77526;BME280;66627;29.424;-98.496;2023-05-27T09:08:53;98971.88;;;25.08;50.26
77526;BME280;66627;29.424;-98.496;2023-05-27T09:11:22;98969.89;;;24.98;50.03
77526;BME280;66627;29.424;-98.496;2023-05-27T09:13:44;98966.37;;;24.93;50.18
77526;BME280;66627;29.424;-98.496;2023-05-27T09:16:09;98970.44;;;24.56;50.33
77526;BME280;66627;29.424;-98.496;2023-05-27T09:18:36;98974.78;;;25.10;49.47
77526;BME280;66627;29.424;-98.496;2023-05-27T09:21:00;98975.98;;;25.06;49.77
77526;BME280;66627;29.424;-98.496;2023-05-27T09:23:26;98976.25;;;24.85;49.88
77526;BME280;66627;29.424;-98.496;2023-05-27T09:25:51;98979.18;;;25.06;49.81
77526;BME280;66627;29.424;-98.496;2023-05-27T09:28:20;98979.23;;;24.83;49.58
77526;BME280;66627;29.424;-98.496;2023-05-27T09:30:43;98977.43;;;24.57;49.98
77526;BME280;66627;29.424;-98.496;2023-05-27T09:33:06;98987.03;;;25.00;49.79
77526;BME280;66627;29.424;-98.496;2023-05-27T09:35:36;98993.24;;;24.56;50.88
77526;BME280;66627;29.424;-98.496;2023-05-27T09:38:05;98998.69;;;24.86;49.94
77526;BME280;66627;29.424;-98.496;2023-05-27T09:40:25;98999.07;;;24.39;51.17
77526;BME280;66627;29.424;-98.496;2023-05-27T09:42:49;99000.83;;;24.29;51.58
77526;BME280;66627;29.424;-98.496;2023-05-27T09:45:15;99000.17;;;24.76;50.85
77526;BME280;66627;29.424;-98.496;2023-05-27T09:47:40;99006.91;;;23.26;54.35
77526;BME280;66627;29.424;-98.496;2023-05-27T09:50:06;99000.47;;;24.12;52.16
77526;BME280;66627;29.424;-98.496;2023-05-27T09:52:30;98993.96;;;23.35;53.38
77526;BME280;66627;29.424;-98.496;2023-05-27T09:54:56;98982.16;;;24.05;52.45
77526;BME280;66627;29.424;-98.496;2023-05-27T09:57:22;98979.75;;;24.58;51.30
77526;BME280;66627;29.424;-98.496;2023-05-27T09:59:48;98973.69;;;24.63;51.42
77526;BME280;66627;29.424;-98.496;2023-05-27T10:02:16;98972.97;;;24.27;51.78
77526;BME280;66627;29.424;-98.496;2023-05-27T10:04:38;98973.51;;;24.37;51.68
77526;BME280;66627;29.424;-98.496;2023-05-27T10:07:04;98981.11;;;23.95;52.57
77526;BME280;66627;29.424;-98.496;2023-05-27T10:09:29;98978.61;;;24.44;50.90
77526;BME280;66627;29.424;-98.496;2023-05-27T10:11:55;98980.59;;;24.49;52.21
77526;BME280;66627;29.424;-98.496;2023-05-27T10:14:20;98979.32;;;24.78;51.87
77526;BME280;66627;29.424;-98.496;2023-05-27T10:16:51;98986.18;;;23.53;53.24
77526;BME280;66627;29.424;-98.496;2023-05-27T10:19:11;98985.36;;;23.96;52.38
77526;BME280;66627;29.424;-98.496;2023-05-27T10:21:42;98987.30;;;24.26;51.90
77526;BME280;66627;29.424;-98.496;2023-05-27T10:24:02;98984.74;;;24.29;51.45
77526;BME280;66627;29.424;-98.496;2023-05-27T10:28:53;98979.81;;;24.45;51.10
77526;BME280;66627;29.424;-98.496;2023-05-27T10:31:18;98982.34;;;23.90;51.94
77526;BME280;66627;29.424;-98.496;2023-05-27T10:33:45;98977.43;;;24.62;51.69
77526;BME280;66627;29.424;-98.496;2023-05-27T10:36:10;98979.57;;;23.94;52.52
77526;BME280;66627;29.424;-98.496;2023-05-27T10:38:35;98979.42;;;24.12;52.39
77526;BME280;66627;29.424;-98.496;2023-05-27T10:41:00;98982.76;;;24.06;51.94
77526;BME280;66627;29.424;-98.496;2023-05-27T10:43:28;98988.57;;;24.38;51.59
77526;BME280;66627;29.424;-98.496;2023-05-27T10:45:50;98988.50;;;24.31;51.56
77526;BME280;66627;29.424;-98.496;2023-05-27T10:48:18;98988.98;;;23.82;52.52
77526;BME280;66627;29.424;-98.496;2023-05-27T10:50:50;98987.07;;;24.06;52.45
77526;BME280;66627;29.424;-98.496;2023-05-27T10:53:08;98992.43;;;23.65;52.67
77526;BME280;66627;29.424;-98.496;2023-05-27T10:55:33;98995.20;;;24.22;51.89
77526;BME280;66627;29.424;-98.496;2023-05-27T10:57:58;98994.29;;;23.51;52.67
77526;BME280;66627;29.424;-98.496;2023-05-27T11:00:27;98991.08;;;23.92;52.33
77526;BME280;66627;29.424;-98.496;2023-05-27T11:02:49;98987.23;;;23.65;52.81
77526;BME280;66627;29.424;-98.496;2023-05-27T11:05:15;98989.62;;;23.75;53.42
77526;BME280;66627;29.424;-98.496;2023-05-27T11:07:40;98993.87;;;24.24;52.30
77526;BME280;66627;29.424;-98.496;2023-05-27T11:10:07;98998.31;;;23.77;52.23
77526;BME280;66627;29.424;-98.496;2023-05-27T11:12:30;99000.93;;;23.72;52.85
77526;BME280;66627;29.424;-98.496;2023-05-27T11:14:56;99002.22;;;23.58;53.05
77526;BME280;66627;29.424;-98.496;2023-05-27T11:17:23;99005.57;;;23.26;53.82
77526;BME280;66627;29.424;-98.496;2023-05-27T11:19:47;99009.86;;;23.93;53.63
77526;BME280;66627;29.424;-98.496;2023-05-27T11:22:13;99011.71;;;23.73;53.24
77526;BME280;66627;29.424;-98.496;2023-05-27T11:24:38;99010.34;;;24.05;53.13
77526;BME280;66627;29.424;-98.496;2023-05-27T11:27:08;99006.89;;;24.06;52.94
77526;BME280;66627;29.424;-98.496;2023-05-27T11:29:29;99009.06;;;23.23;54.28
77526;BME280;66627;29.424;-98.496;2023-05-27T11:31:54;99010.72;;;23.46;53.07
77526;BME280;66627;29.424;-98.496;2023-05-27T11:34:19;99015.30;;;23.64;52.87
77526;BME280;66627;29.424;-98.496;2023-05-27T11:36:45;99019.75;;;23.66;52.62
77526;BME280;66627;29.424;-98.496;2023-05-27T11:39:12;99022.52;;;23.17;55.55
77526;BME280;66627;29.424;-98.496;2023-05-27T11:41:35;99028.85;;;22.79;55.57
77526;BME280;66627;29.424;-98.496;2023-05-27T11:44:03;99036.14;;;23.15;55.00
77526;BME280;66627;29.424;-98.496;2023-05-27T11:46:34;99037.64;;;22.45;56.42
77526;BME280;66627;29.424;-98.496;2023-05-27T11:48:52;99036.95;;;23.41;54.25
77526;BME280;66627;29.424;-98.496;2023-05-27T11:51:17;99034.63;;;22.37;57.14
77526;BME280;66627;29.424;-98.496;2023-05-27T11:53:46;99029.41;;;22.24;57.29
77526;BME280;66627;29.424;-98.496;2023-05-27T11:56:08;99023.79;;;22.94;55.88
77526;BME280;66627;29.424;-98.496;2023-05-27T11:58:33;99019.07;;;23.69;54.09
77526;BME280;66627;29.424;-98.496;2023-05-27T12:00:58;99011.74;;;23.20;54.59
77526;BME280;66627;29.424;-98.496;2023-05-27T12:03:24;99009.16;;;23.52;54.35
77526;BME280;66627;29.424;-98.496;2023-05-27T12:05:50;99007.10;;;23.78;54.45
77526;BME280;66627;29.424;-98.496;2023-05-27T12:08:16;99003.75;;;23.73;53.98
77526;BME280;66627;29.424;-98.496;2023-05-27T12:10:40;99005.29;;;24.10;53.44
77526;BME280;66627;29.424;-98.496;2023-05-27T12:13:06;99014.21;;;23.88;53.16
77526;BME280;66627;29.424;-98.496;2023-05-27T12:15:32;99023.76;;;23.63;53.91
77526;BME280;66627;29.424;-98.496;2023-05-27T12:17:57;99030.89;;;23.67;53.54
77526;BME280;66627;29.424;-98.496;2023-05-27T12:20:22;99032.95;;;23.91;53.61
77526;BME280;66627;29.424;-98.496;2023-05-27T12:22:48;99031.05;;;23.72;53.90
77526;BME280;66627;29.424;-98.496;2023-05-27T12:25:13;99031.80;;;24.53;53.87
77526;BME280;66627;29.424;-98.496;2023-05-27T12:27:39;99038.31;;;24.04;54.08
77526;BME280;66627;29.424;-98.496;2023-05-27T12:30:05;99040.90;;;24.16;53.65
77526;BME280;66627;29.424;-98.496;2023-05-27T12:32:29;99039.87;;;24.11;54.00